createdAt,value
2018-10-06T00:01:14.632Z,11.93
2018-10-06T00:03:43.361Z,13.83
2018-10-06T00:06:12.196Z,15.03
2018-10-06T00:08:40.914Z,15.63
2018-10-06T00:11:11.223Z,10.07
2018-10-06T00:13:40.215Z,10.97
2018-10-06T00:16:08.933Z,11.67
2018-10-06T00:18:37.707Z,12.93
2018-10-06T00:21:06.346Z,12.73
2018-10-06T00:23:34.952Z,12.33
2018-10-06T00:26:04.276Z,13.80
2018-10-06T00:28:32.967Z,12.47
2018-10-06T00:31:01.711Z,13.97
2018-10-06T00:33:30.398Z,14.37
2018-10-06T00:35:59.022Z,13.23
2018-10-06T00:38:27.768Z,13.13
2018-10-06T00:40:56.510Z,11.23
2018-10-06T00:43:25.216Z,10.80
2018-10-06T00:45:53.964Z,15.70
2018-10-06T00:48:22.724Z,16.40
2018-10-06T00:50:51.539Z,12.63
2018-10-06T00:53:20.287Z,11.17
2018-10-06T00:55:49.070Z,11.67
2018-10-06T00:58:17.774Z,11.80
2018-10-06T01:00:46.461Z,12.33
2018-10-06T01:03:15.179Z,11.73
2018-10-06T01:05:43.855Z,14.53
2018-10-06T01:08:12.697Z,11.53
2018-10-06T01:10:41.345Z,13.93
2018-10-06T01:13:10.115Z,16.50
2018-10-06T01:15:38.817Z,13.00
2018-10-06T01:18:08.241Z,14.13
2018-10-06T01:20:37.007Z,15.13
2018-10-06T01:23:05.683Z,12.93
2018-10-06T01:25:34.325Z,12.93
2018-10-06T01:28:03.179Z,13.97
2018-10-06T01:30:31.865Z,13.13
2018-10-06T01:33:00.573Z,13.90
2018-10-06T01:35:29.205Z,13.07
2018-10-06T01:37:57.977Z,15.17
2018-10-06T01:40:27.256Z,12.87
2018-10-06T01:42:55.864Z,14.60
2018-10-06T01:45:24.480Z,16.33
2018-10-06T01:47:53.103Z,14.80
2018-10-06T01:50:21.724Z,16.07
2018-10-06T01:52:50.528Z,15.30
2018-10-06T01:55:19.273Z,12.67
2018-10-06T01:57:47.918Z,17.20
2018-10-06T02:00:17.070Z,14.30
2018-10-06T02:02:45.704Z,13.00
2018-10-06T02:05:14.510Z,14.67
2018-10-06T02:07:43.895Z,16.80
2018-10-06T02:10:12.643Z,14.47
2018-10-06T02:12:41.284Z,13.83
2018-10-06T02:15:10.060Z,15.93
2018-10-06T02:17:38.752Z,16.47
2018-10-06T02:20:07.432Z,17.40
2018-10-06T02:22:36.194Z,14.60
2018-10-06T02:25:04.995Z,15.90
2018-10-06T02:27:33.903Z,17.60
2018-10-06T02:30:02.791Z,15.30
2018-10-06T02:32:31.527Z,14.80
2018-10-06T02:35:00.317Z,16.13
2018-10-06T02:37:29.298Z,14.73
2018-10-06T02:39:57.989Z,14.17
2018-10-06T02:42:26.999Z,16.73
2018-10-06T02:44:55.720Z,14.43
2018-10-06T02:47:24.372Z,16.70
2018-10-06T02:49:53.096Z,14.00
2018-10-06T02:52:22.268Z,16.57
2018-10-06T02:54:51.067Z,16.53
2018-10-06T02:57:19.922Z,17.20
2018-10-06T02:59:48.644Z,15.33
2018-10-06T03:02:17.281Z,15.80
2018-10-06T03:04:45.896Z,14.70
2018-10-06T03:07:14.638Z,15.83
2018-10-06T03:09:43.272Z,14.40
2018-10-06T03:12:11.898Z,15.73
2018-10-06T03:14:40.742Z,14.80
2018-10-06T03:17:09.548Z,14.47
2018-10-06T03:19:38.830Z,15.17
2018-10-06T03:22:07.538Z,16.33
2018-10-06T03:24:36.209Z,17.80
2018-10-06T03:27:04.873Z,14.87
2018-10-06T03:29:33.567Z,16.83
2018-10-06T03:32:02.279Z,18.47
2018-10-06T03:34:30.942Z,15.03
2018-10-06T03:36:59.611Z,20.10
2018-10-06T03:39:28.269Z,15.07
2018-10-06T03:41:56.894Z,15.33
2018-10-06T03:44:25.543Z,15.27
2018-10-06T03:46:54.259Z,15.67
2018-10-06T03:49:22.909Z,14.57
2018-10-06T03:51:51.607Z,14.13
2018-10-06T03:54:20.397Z,16.90
2018-10-06T03:56:49.027Z,16.07
2018-10-06T03:59:17.627Z,15.17
2018-10-06T04:01:46.322Z,15.00
2018-10-06T04:04:15.004Z,15.63
2018-10-06T04:06:43.640Z,16.00
2018-10-06T04:09:12.450Z,17.00
2018-10-06T04:11:41.181Z,15.17
2018-10-06T04:14:09.838Z,15.97
2018-10-06T04:16:38.516Z,16.73
2018-10-06T04:19:07.200Z,15.67
2018-10-06T04:21:45.846Z,16.27
2018-10-06T04:24:15.614Z,17.77
2018-10-06T04:26:44.406Z,17.43
2018-10-06T04:29:13.141Z,17.60
2018-10-06T04:31:41.854Z,16.83
2018-10-06T04:34:10.950Z,15.77
2018-10-06T04:36:39.639Z,16.17
2018-10-06T04:39:09.312Z,17.20
2018-10-06T04:41:38.026Z,15.60
2018-10-06T04:44:07.090Z,15.90
2018-10-06T04:46:35.881Z,15.60
2018-10-06T04:49:04.625Z,16.43
2018-10-06T04:51:33.311Z,15.47
2018-10-06T04:54:01.975Z,15.30
2018-10-06T04:56:30.799Z,15.83
2018-10-06T04:58:59.419Z,19.33
2018-10-06T05:01:28.147Z,16.27
2018-10-06T05:03:56.769Z,14.97
2018-10-06T05:06:25.433Z,15.83
2018-10-06T05:08:54.072Z,18.17
2018-10-06T05:11:22.696Z,16.37
2018-10-06T05:13:51.326Z,16.97
2018-10-06T05:16:19.998Z,16.43
2018-10-06T05:18:48.644Z,14.90
2018-10-06T05:21:17.364Z,15.53
2018-10-06T05:23:46.068Z,17.40
2018-10-06T05:26:14.804Z,17.70
2018-10-06T05:28:44.038Z,15.27
2018-10-06T05:31:12.703Z,17.83
2018-10-06T05:33:41.329Z,14.63
2018-10-06T05:36:10.048Z,14.90
2018-10-06T05:38:38.625Z,14.70
2018-10-06T05:41:07.539Z,15.47
2018-10-06T05:43:36.233Z,15.40
2018-10-06T05:46:04.854Z,14.80
2018-10-06T05:48:34.055Z,14.57
2018-10-06T05:51:02.819Z,14.73
2018-10-06T05:53:31.494Z,15.17
2018-10-06T05:56:00.123Z,15.40
2018-10-06T05:58:28.825Z,17.23
2018-10-06T06:00:57.513Z,15.57
2018-10-06T06:03:26.233Z,14.37
2018-10-06T06:05:54.900Z,14.93
2018-10-06T06:08:23.645Z,17.50
2018-10-06T06:10:52.284Z,14.93
2018-10-06T06:13:21.597Z,15.13
2018-10-06T06:15:50.472Z,13.27
2018-10-06T06:18:19.181Z,15.37
2018-10-06T06:20:47.944Z,14.00
2018-10-06T06:23:16.847Z,13.97
2018-10-06T06:25:45.704Z,13.50
2018-10-06T06:28:14.558Z,14.37
2018-10-06T06:30:44.299Z,14.00
2018-10-06T06:33:13.062Z,14.43
2018-10-06T06:35:42.307Z,15.30
2018-10-06T06:38:11.218Z,15.17
2018-10-06T06:40:39.948Z,13.67
2018-10-06T06:43:08.676Z,12.97
2018-10-06T06:45:37.428Z,14.40
2018-10-06T06:48:06.188Z,12.10
2018-10-06T06:50:35.166Z,13.27
2018-10-06T06:53:04.162Z,15.03
2018-10-06T06:55:32.935Z,12.77
2018-10-06T06:58:01.684Z,13.93
2018-10-06T07:00:30.315Z,13.73
2018-10-06T07:02:59.098Z,11.20
2018-10-06T07:05:28.358Z,13.47
2018-10-06T07:07:57.069Z,13.90
2018-10-06T07:10:26.888Z,11.00
2018-10-06T07:12:56.096Z,13.00
2018-10-06T07:15:25.006Z,11.47
2018-10-06T07:17:53.739Z,11.60
2018-10-06T07:20:22.659Z,11.70
2018-10-06T07:22:52.353Z,11.63
2018-10-06T07:25:21.935Z,15.53
2018-10-06T07:27:57.408Z,11.50
2018-10-06T07:30:26.249Z,11.07
2018-10-06T07:32:55.434Z,11.07
2018-10-06T07:35:24.243Z,11.90
2018-10-06T07:37:53.418Z,12.20
2018-10-06T07:40:22.046Z,9.67
2018-10-06T07:42:50.654Z,11.73
2018-10-06T07:45:19.275Z,12.28
2018-10-06T07:47:48.036Z,11.25
2018-10-06T07:50:16.681Z,8.88
2018-10-06T07:52:45.291Z,10.18
2018-10-06T07:55:14.058Z,9.83
2018-10-06T07:57:43.097Z,10.70
2018-10-06T08:00:11.884Z,9.93
2018-10-06T08:02:40.547Z,10.80
2018-10-06T08:05:09.284Z,9.93
2018-10-06T08:07:38.602Z,9.45
2018-10-06T08:10:07.280Z,8.93
2018-10-06T08:12:35.989Z,10.45
2018-10-06T08:15:04.770Z,9.53
2018-10-06T08:17:33.423Z,8.80
2018-10-06T08:20:02.155Z,8.73
2018-10-06T08:22:30.959Z,7.67
2018-10-06T08:24:59.623Z,9.03
2018-10-06T08:27:28.225Z,10.43
2018-10-06T08:29:57.085Z,10.20
2018-10-06T08:32:25.761Z,8.25
2018-10-06T08:34:54.443Z,9.73
2018-10-06T08:37:23.237Z,8.15
2018-10-06T08:39:51.958Z,9.73
2018-10-06T08:42:22.018Z,10.72
2018-10-06T08:44:50.784Z,9.70
2018-10-06T08:47:19.747Z,8.35
2018-10-06T08:49:49.012Z,9.48
2018-10-06T08:52:17.994Z,9.98
2018-10-06T08:54:46.924Z,8.70
2018-10-06T08:57:15.801Z,7.85
2018-10-06T08:59:44.750Z,8.45
2018-10-06T09:02:13.623Z,9.15
2018-10-06T09:04:42.649Z,7.45
2018-10-06T09:07:11.420Z,8.50
2018-10-06T09:09:40.266Z,7.15
2018-10-06T09:12:09.177Z,9.30
2018-10-06T09:14:38.197Z,7.60
2018-10-06T09:17:06.990Z,8.48
2018-10-06T09:19:37.104Z,7.00
2018-10-06T09:22:06.528Z,9.23
2018-10-06T09:24:35.472Z,7.75
2018-10-06T09:27:04.483Z,7.20
2018-10-06T09:29:33.267Z,9.60
2018-10-06T09:32:07.460Z,8.10
2018-10-06T09:34:37.083Z,7.55
2018-10-06T09:37:06.470Z,6.90
2018-10-06T09:39:35.321Z,7.90
2018-10-06T09:42:07.621Z,8.70
2018-10-06T09:44:38.253Z,8.63
2018-10-06T09:47:07.363Z,8.38
2018-10-06T09:49:36.203Z,9.40
2018-10-06T09:52:05.309Z,7.30
2018-10-06T09:54:34.173Z,7.65
2018-10-06T09:57:02.926Z,6.50
2018-10-06T09:59:31.949Z,6.90
2018-10-06T10:02:06.249Z,8.00
2018-10-06T10:04:41.685Z,7.80
2018-10-06T10:07:10.904Z,7.30
2018-10-06T10:09:39.881Z,10.35
2018-10-06T10:12:08.689Z,9.25
2018-10-06T10:14:37.877Z,6.67
2018-10-06T10:17:06.756Z,7.92
2018-10-06T10:19:35.330Z,7.35
2018-10-06T10:22:04.868Z,10.45
2018-10-06T10:24:33.823Z,8.33
2018-10-06T10:27:03.299Z,7.85
2018-10-06T10:29:35.005Z,8.03
2018-10-06T10:32:04.403Z,8.18
2018-10-06T10:34:33.225Z,7.15
2018-10-06T10:37:02.999Z,6.67
2018-10-06T10:39:38.537Z,6.45
2018-10-06T10:42:08.552Z,8.35
2018-10-06T10:44:37.615Z,6.87
2018-10-06T10:47:06.454Z,7.28
2018-10-06T10:49:35.483Z,7.53
2018-10-06T10:52:04.248Z,6.85
2018-10-06T10:54:33.013Z,6.95
2018-10-06T10:57:02.125Z,7.62
2018-10-06T10:59:31.619Z,7.37
2018-10-06T11:02:00.422Z,6.58
2018-10-06T11:04:29.543Z,6.80
2018-10-06T11:06:58.718Z,6.35
2018-10-06T11:09:27.452Z,8.30
2018-10-06T11:11:56.256Z,9.20
2018-10-06T11:14:24.958Z,10.93
2018-10-06T11:16:53.796Z,5.90
2018-10-06T11:19:22.534Z,10.20
2018-10-06T11:21:51.536Z,9.35
2018-10-06T11:24:20.207Z,10.55
2018-10-06T11:26:48.851Z,6.65
2018-10-06T11:29:17.589Z,7.80
2018-10-06T11:31:46.302Z,7.22
2018-10-06T11:34:15.019Z,5.95
2018-10-06T11:36:43.669Z,7.03
2018-10-06T11:39:12.511Z,7.15
2018-10-06T11:41:41.504Z,7.47
2018-10-06T11:44:10.253Z,6.53
2018-10-06T11:46:38.978Z,6.20
2018-10-06T11:49:07.611Z,11.97
2018-10-06T11:51:36.355Z,6.08
2018-10-06T11:54:05.240Z,5.75
2018-10-06T11:56:34.003Z,9.40
2018-10-06T11:59:02.641Z,7.10
2018-10-06T12:01:31.672Z,7.55
2018-10-06T12:04:00.505Z,6.05
2018-10-06T12:06:29.341Z,7.15
2018-10-06T12:08:58.161Z,6.45
2018-10-06T12:11:27.128Z,6.35
2018-10-06T12:13:55.884Z,6.40
2018-10-06T12:16:24.600Z,6.55
2018-10-06T12:18:53.274Z,6.78
2018-10-06T12:21:21.990Z,6.17
2018-10-06T12:23:50.668Z,6.45
2018-10-06T12:26:19.377Z,6.30
2018-10-06T12:28:48.046Z,8.70
2018-10-06T12:31:16.785Z,5.67
2018-10-06T12:33:45.433Z,6.47
2018-10-06T12:36:14.164Z,6.00
2018-10-06T12:38:42.978Z,6.35
2018-10-06T12:41:11.687Z,6.78
2018-10-06T12:43:40.301Z,6.85
2018-10-06T12:46:09.189Z,8.30
2018-10-06T12:48:37.847Z,5.72
2018-10-06T12:51:06.765Z,6.80
2018-10-06T12:53:35.773Z,7.97
2018-10-06T12:56:05.876Z,6.95
2018-10-06T12:58:34.581Z,6.05
2018-10-06T13:01:03.398Z,7.12
2018-10-06T13:03:32.221Z,5.55
2018-10-06T13:06:01.097Z,8.05
2018-10-06T13:08:30.578Z,6.08
2018-10-06T13:10:59.212Z,5.97
2018-10-06T13:13:28.082Z,5.50
2018-10-06T13:15:56.739Z,5.08
2018-10-06T13:18:25.586Z,4.83
2018-10-06T13:20:54.388Z,6.10
2018-10-06T13:23:23.052Z,5.08
2018-10-06T13:25:52.186Z,7.15
2018-10-06T13:28:20.967Z,5.95
2018-10-06T13:30:49.966Z,4.45
2018-10-06T13:33:18.818Z,7.12
2018-10-06T13:35:47.613Z,5.90
2018-10-06T13:38:16.507Z,4.05
2018-10-06T13:40:45.469Z,4.60
2018-10-06T13:43:14.937Z,4.53
2018-10-06T13:45:43.606Z,4.35
2018-10-06T13:48:12.241Z,5.30
2018-10-06T13:50:40.965Z,4.15
2018-10-06T13:53:09.702Z,5.53
2018-10-06T13:55:38.387Z,4.40
2018-10-06T13:58:07.553Z,5.33
2018-10-06T14:00:36.391Z,5.58
2018-10-06T14:03:06.098Z,4.35
2018-10-06T14:05:34.875Z,3.83
2018-10-06T14:08:03.977Z,3.87
2018-10-06T14:10:32.799Z,4.22
2018-10-06T14:13:01.541Z,5.15
2018-10-06T14:15:30.274Z,3.80
2018-10-06T14:17:59.004Z,7.25
2018-10-06T14:20:28.047Z,5.97
2018-10-06T14:22:56.860Z,5.47
2018-10-06T14:25:25.581Z,4.58
2018-10-06T14:27:54.461Z,5.22
2018-10-06T14:30:23.138Z,6.60
2018-10-06T14:32:51.866Z,9.05
2018-10-06T14:35:20.578Z,4.97
2018-10-06T14:37:49.397Z,5.17
2018-10-06T14:40:18.371Z,6.12
2018-10-06T14:42:47.751Z,4.30
2018-10-06T14:45:16.921Z,4.30
2018-10-06T14:47:46.444Z,4.15
2018-10-06T14:50:15.414Z,4.22
2018-10-06T14:52:44.403Z,6.62
2018-10-06T14:55:13.909Z,5.58
2018-10-06T14:57:45.303Z,4.97
2018-10-06T15:00:15.430Z,5.17
2018-10-06T15:02:50.709Z,6.65
2018-10-06T15:05:19.857Z,4.00
2018-10-06T15:07:48.779Z,6.75
2018-10-06T15:10:27.523Z,5.78
2018-10-06T15:12:56.779Z,4.72
2018-10-06T15:15:25.501Z,6.55
2018-10-06T15:17:54.269Z,7.45
2018-10-06T15:20:26.881Z,5.00
2018-10-06T15:22:55.827Z,6.17
2018-10-06T15:25:28.427Z,5.45
2018-10-06T15:27:57.687Z,6.08
2018-10-06T15:30:26.650Z,5.10
2018-10-06T15:32:55.358Z,5.30
2018-10-06T15:35:24.059Z,5.80
2018-10-06T15:37:52.930Z,6.97
2018-10-06T15:40:21.688Z,6.05
2018-10-06T15:42:50.738Z,8.28
2018-10-06T15:45:19.627Z,11.25
2018-10-06T15:47:48.551Z,8.20
2018-10-06T15:50:17.589Z,8.48
2018-10-06T15:52:46.344Z,6.70
2018-10-06T15:55:15.248Z,7.37
2018-10-06T15:57:44.497Z,10.18
2018-10-06T16:00:13.339Z,8.35
2018-10-06T16:02:42.614Z,6.22
2018-10-06T16:05:11.343Z,8.93
2018-10-06T16:07:41.141Z,6.47
2018-10-06T16:10:10.083Z,5.33
2018-10-06T16:12:40.204Z,7.85
2018-10-06T16:15:09.941Z,6.15
2018-10-06T16:17:39.083Z,10.00
2018-10-06T16:20:09.711Z,7.95
2018-10-06T16:22:40.014Z,9.38
2018-10-06T16:25:09.415Z,7.50
2018-10-06T16:27:39.069Z,8.98
2018-10-06T16:30:10.009Z,6.72
2018-10-06T16:32:38.992Z,7.92
2018-10-06T16:35:10.981Z,7.58
2018-10-06T16:37:41.225Z,6.20
2018-10-06T16:40:10.559Z,7.72
2018-10-06T16:42:39.885Z,6.55
2018-10-06T16:45:10.975Z,7.03
2018-10-06T16:47:43.512Z,8.50
2018-10-06T16:50:14.000Z,8.80
2018-10-06T16:52:43.964Z,10.50
2018-10-06T16:55:13.168Z,8.60
2018-10-06T16:57:42.016Z,9.63
2018-10-06T17:00:11.054Z,12.47
2018-10-06T17:02:39.878Z,27.20
2018-10-06T17:05:08.825Z,9.33
2018-10-06T17:07:39.464Z,13.45
2018-10-06T17:10:08.894Z,16.77
2018-10-06T17:12:39.199Z,14.18
2018-10-06T17:15:08.038Z,11.15
2018-10-06T17:17:37.550Z,14.40
2018-10-06T17:20:06.381Z,12.23
2018-10-06T17:22:35.117Z,12.13
2018-10-06T17:25:03.792Z,12.20
2018-10-06T17:27:32.461Z,14.35
2018-10-06T17:30:01.309Z,13.65
2018-10-06T17:32:31.057Z,11.80
2018-10-06T17:35:00.625Z,13.72
2018-10-06T17:37:29.789Z,16.23
2018-10-06T17:40:13.067Z,25.88
2018-10-06T17:42:45.229Z,12.98
2018-10-06T17:45:18.153Z,13.48
2018-10-06T17:47:50.245Z,11.70
2018-10-06T17:50:21.638Z,12.63
2018-10-06T17:52:50.544Z,12.10
2018-10-06T17:55:36.417Z,14.10
2018-10-06T17:58:12.677Z,12.63
2018-10-06T18:00:44.114Z,12.23
2018-10-06T18:03:16.864Z,10.90
2018-10-06T18:08:46.869Z,11.80
2018-10-06T18:11:17.055Z,11.97
2018-10-06T18:13:46.023Z,14.07
2018-10-06T18:16:19.364Z,12.68
2018-10-06T18:18:52.512Z,11.88
2018-10-06T18:21:23.483Z,12.40
2018-10-06T18:23:52.758Z,12.07
2018-10-06T18:26:24.244Z,10.30
2018-10-06T18:28:55.570Z,12.00
2018-10-06T18:31:26.714Z,9.83
2018-10-06T18:33:56.705Z,12.43
2018-10-06T18:36:27.860Z,11.63
2018-10-06T18:38:59.323Z,12.43
2018-10-06T18:41:29.413Z,11.15
2018-10-06T18:44:09.383Z,10.23
2018-10-06T18:46:38.653Z,10.50
2018-10-06T18:49:09.669Z,10.58
2018-10-06T18:51:39.721Z,11.28
2018-10-06T18:54:11.702Z,11.10
2018-10-06T18:56:42.000Z,11.08
2018-10-06T18:59:14.092Z,10.80
2018-10-06T19:01:44.673Z,13.85
2018-10-06T19:04:15.879Z,12.28
2018-10-06T19:06:52.791Z,12.98
2018-10-06T19:09:25.703Z,10.48
2018-10-06T19:12:00.459Z,10.88
2018-10-06T19:14:33.565Z,11.22
2018-10-06T19:17:04.374Z,11.18
2018-10-06T19:19:35.624Z,11.45
2018-10-06T19:22:05.863Z,11.75
2018-10-06T19:24:41.333Z,13.08
2018-10-06T19:27:12.191Z,11.60
2018-10-06T19:29:43.446Z,11.40
2018-10-06T19:32:14.684Z,10.60
2018-10-06T19:34:43.893Z,11.18
2018-10-06T19:37:13.392Z,10.78
2018-10-06T19:39:42.541Z,12.75
2018-10-06T19:42:11.696Z,10.60
2018-10-06T19:44:40.817Z,11.05
2018-10-06T19:47:10.047Z,11.78
2018-10-06T19:49:39.003Z,14.50
2018-10-06T19:52:08.263Z,11.97
2018-10-06T19:54:40.779Z,13.68
2018-10-06T19:57:10.656Z,12.07
2018-10-06T19:59:39.747Z,11.17
2018-10-06T20:02:08.977Z,12.80
2018-10-06T20:04:38.221Z,11.83
2018-10-06T20:07:07.805Z,12.53
2018-10-06T20:09:37.163Z,12.63
2018-10-06T20:12:08.969Z,13.28
2018-10-06T20:14:38.975Z,12.55
2018-10-06T20:17:08.031Z,12.28
2018-10-06T20:19:37.609Z,12.28
2018-10-06T20:22:08.531Z,12.63
2018-10-06T20:24:37.646Z,12.50
2018-10-06T20:27:06.685Z,12.25
2018-10-06T20:29:35.725Z,12.73
2018-10-06T20:32:06.997Z,12.15
2018-10-06T20:34:38.661Z,11.60
2018-10-06T20:37:07.318Z,12.53
2018-10-06T20:39:37.223Z,12.20
2018-10-06T20:42:06.802Z,12.37
2018-10-06T20:44:37.696Z,12.45
2018-10-06T20:47:06.510Z,11.57
2018-10-06T20:49:38.274Z,11.60
2018-10-06T20:52:08.298Z,12.73
2018-10-06T20:54:37.110Z,12.07
2018-10-06T20:57:10.842Z,12.57
2018-10-06T20:59:40.263Z,10.83
2018-10-06T21:02:09.129Z,11.80
2018-10-06T21:04:37.845Z,11.30
2018-10-06T21:07:07.020Z,11.28
2018-10-06T21:09:38.102Z,11.18
2018-10-06T21:12:10.188Z,11.40
2018-10-06T21:14:39.492Z,10.05
2018-10-06T21:17:08.888Z,12.43
2018-10-06T21:19:38.552Z,12.47
2018-10-06T21:22:09.528Z,11.80
2018-10-06T21:24:41.205Z,10.83
2018-10-06T21:27:11.175Z,10.03
2018-10-06T21:29:46.240Z,16.57
2018-10-06T21:32:20.380Z,11.87
2018-10-06T21:34:51.315Z,10.77
2018-10-06T21:37:20.813Z,10.90
2018-10-06T21:39:49.985Z,11.87
2018-10-06T21:42:19.717Z,11.83
2018-10-06T21:44:49.740Z,12.00
2018-10-06T21:47:18.759Z,11.40
2018-10-06T21:49:47.625Z,10.23
2018-10-06T21:52:16.557Z,10.47
2018-10-06T21:54:45.278Z,10.68
2018-10-06T21:57:14.198Z,11.27
2018-10-06T21:59:43.654Z,10.25
2018-10-06T22:02:13.444Z,12.10
2018-10-06T22:04:42.452Z,10.30
2018-10-06T22:07:11.097Z,10.67
2018-10-06T22:09:40.425Z,10.88
2018-10-06T22:12:09.301Z,10.47
2018-10-06T22:14:38.101Z,9.60
2018-10-06T22:17:06.892Z,11.43
2018-10-06T22:19:35.604Z,10.60
2018-10-06T22:22:04.683Z,9.40
2018-10-06T22:24:33.496Z,10.47
2018-10-06T22:27:02.586Z,9.87
2018-10-06T22:29:33.044Z,9.87
2018-10-06T22:32:01.981Z,14.57
2018-10-06T22:34:32.125Z,10.13
2018-10-06T22:37:01.043Z,9.50
2018-10-06T22:39:30.456Z,10.37
2018-10-06T22:42:00.971Z,11.07
2018-10-06T22:44:30.813Z,12.10
2018-10-06T22:46:59.981Z,10.37
2018-10-06T22:49:30.151Z,11.23
2018-10-06T22:51:59.275Z,9.87
2018-10-06T22:54:27.974Z,10.08
2018-10-06T22:56:56.766Z,10.13
2018-10-06T22:59:25.505Z,9.40
2018-10-06T23:01:55.348Z,11.50
2018-10-06T23:04:24.047Z,10.40
2018-10-06T23:06:52.652Z,10.10
2018-10-06T23:09:21.276Z,9.97
2018-10-06T23:11:50.233Z,10.17
2018-10-06T23:14:18.935Z,9.23
2018-10-06T23:16:47.737Z,9.80
2018-10-06T23:19:16.379Z,10.67
2018-10-06T23:21:45.137Z,10.30
2018-10-06T23:24:13.891Z,10.27
2018-10-06T23:26:42.643Z,10.10
2018-10-06T23:29:11.387Z,10.17
2018-10-06T23:31:39.995Z,11.00
2018-10-06T23:34:08.648Z,11.70
2018-10-06T23:36:37.282Z,9.20
2018-10-06T23:39:06.132Z,10.60
2018-10-06T23:41:34.797Z,10.37
2018-10-06T23:44:03.533Z,11.73
2018-10-06T23:46:32.220Z,10.57
2018-10-06T23:49:00.811Z,10.77
2018-10-06T23:51:29.536Z,11.47
2018-10-06T23:53:58.227Z,13.30
2018-10-06T23:56:26.887Z,10.27
2018-10-06T23:58:55.523Z,10.70
